createdAt,value
2023-04-27T00:02:12.203Z,59.15
2023-04-27T00:04:42.099Z,59.71
2023-04-27T00:07:14.539Z,59.50
2023-04-27T00:09:44.301Z,59.79
2023-04-27T00:12:13.977Z,59.70
2023-04-27T00:14:43.694Z,59.88
2023-04-27T00:17:13.362Z,59.76
2023-04-27T00:19:43.025Z,60.34
2023-04-27T00:22:15.273Z,60.39
2023-04-27T00:24:45.198Z,60.58
2023-04-27T00:27:14.840Z,60.60
2023-04-27T00:29:45.655Z,60.77
2023-04-27T00:32:15.474Z,60.94
2023-04-27T00:34:45.462Z,60.89
2023-04-27T00:37:18.811Z,61.08
2023-04-27T00:39:49.145Z,61.15
2023-04-27T00:42:19.868Z,61.34
2023-04-27T00:44:54.129Z,61.34
2023-04-27T00:47:23.863Z,61.69
2023-04-27T00:49:53.540Z,61.80
2023-04-27T00:52:25.941Z,61.70
2023-04-27T00:54:55.881Z,62.02
2023-04-27T00:57:26.028Z,61.90
2023-04-27T00:59:55.757Z,62.10
2023-04-27T01:02:25.644Z,62.02
2023-04-27T01:04:56.069Z,62.05
2023-04-27T01:07:30.630Z,62.11
2023-04-27T01:10:01.172Z,62.24
2023-04-27T01:12:30.807Z,62.61
2023-04-27T01:15:00.539Z,62.53
2023-04-27T01:17:30.284Z,62.76
2023-04-27T01:20:00.432Z,62.94
2023-04-27T01:22:32.692Z,62.90
2023-04-27T01:25:04.944Z,62.92
2023-04-27T01:27:35.264Z,62.79
2023-04-27T01:30:07.312Z,63.12
2023-04-27T01:32:37.172Z,62.85
2023-04-27T01:35:07.424Z,63.20
2023-04-27T01:37:37.140Z,63.29
2023-04-27T01:40:10.996Z,63.36
2023-04-27T01:42:40.964Z,63.49
2023-04-27T01:45:13.729Z,63.68
2023-04-27T01:47:43.736Z,63.50
2023-04-27T01:50:14.408Z,63.71
2023-04-27T01:52:44.086Z,63.90
2023-04-27T01:55:16.417Z,63.57
2023-04-27T01:57:46.170Z,63.83
2023-04-27T02:00:17.848Z,63.95
2023-04-27T02:02:57.693Z,64.08
2023-04-27T02:05:27.505Z,64.26
2023-04-27T02:07:57.234Z,64.26
2023-04-27T02:10:29.574Z,64.54
2023-04-27T02:12:59.746Z,64.23
2023-04-27T02:15:29.434Z,64.33
2023-04-27T02:18:00.270Z,64.63
2023-04-27T02:20:29.990Z,64.63
2023-04-27T02:22:59.752Z,64.71
2023-04-27T02:25:32.249Z,65.02
2023-04-27T02:28:01.917Z,64.99
2023-04-27T02:30:33.296Z,65.15
2023-04-27T02:33:03.666Z,65.08
2023-04-27T02:35:35.335Z,65.30
2023-04-27T02:38:05.041Z,65.10
2023-04-27T02:40:37.324Z,65.67
2023-04-27T02:43:09.275Z,65.54
2023-04-27T02:45:40.522Z,65.64
2023-04-27T02:48:10.334Z,65.46
2023-04-27T02:50:43.719Z,65.56
2023-04-27T02:53:14.218Z,65.52
2023-04-27T02:55:50.973Z,65.60
2023-04-27T02:58:20.733Z,65.90
2023-04-27T03:00:50.534Z,66.18
2023-04-27T03:03:20.557Z,66.01
2023-04-27T03:05:50.684Z,66.21
2023-04-27T03:08:20.368Z,66.57
2023-04-27T03:10:52.651Z,66.55
2023-04-27T03:13:22.637Z,66.45
2023-04-27T03:15:52.312Z,66.35
2023-04-27T03:18:23.297Z,66.56
2023-04-27T03:20:52.969Z,66.61
2023-04-27T03:23:23.922Z,66.69
2023-04-27T03:25:58.101Z,66.89
2023-04-27T03:28:27.971Z,66.78
2023-04-27T03:30:58.293Z,67.00
2023-04-27T03:33:28.780Z,66.75
2023-04-27T03:35:59.162Z,67.10
2023-04-27T03:38:29.531Z,67.18
2023-04-27T03:41:01.853Z,67.49
2023-04-27T03:43:31.771Z,67.46
2023-04-27T03:46:01.566Z,67.61
2023-04-27T03:48:31.533Z,67.41
2023-04-27T03:51:01.270Z,67.79
2023-04-27T03:53:31.042Z,67.74
2023-04-27T03:56:05.101Z,67.60
2023-04-27T03:58:34.855Z,67.85
2023-04-27T04:01:25.115Z,68.10
2023-04-27T04:03:54.921Z,68.14
2023-04-27T04:06:24.745Z,68.32
2023-04-27T04:08:54.492Z,68.10
2023-04-27T04:11:27.504Z,68.41
2023-04-27T04:13:59.944Z,68.59
2023-04-27T04:16:29.926Z,68.59
2023-04-27T04:18:59.797Z,68.88
2023-04-27T04:21:29.528Z,69.27
2023-04-27T04:23:59.253Z,69.04
2023-04-27T04:26:31.532Z,69.09
2023-04-27T04:29:01.368Z,68.96
2023-04-27T04:31:31.256Z,69.18
2023-04-27T04:34:01.594Z,69.00
2023-04-27T04:36:31.442Z,68.91
2023-04-27T04:39:01.112Z,68.78
2023-04-27T04:41:33.409Z,69.14
2023-04-27T04:44:03.510Z,68.95
2023-04-27T04:46:33.453Z,69.08
2023-04-27T04:49:03.203Z,68.83
2023-04-27T04:51:32.976Z,68.85
2023-04-27T04:54:03.854Z,68.71
2023-04-27T04:56:36.371Z,68.90
2023-04-27T04:59:06.867Z,68.63
2023-04-27T05:01:36.786Z,68.66
2023-04-27T05:04:06.745Z,68.65
2023-04-27T05:06:36.679Z,68.43
2023-04-27T05:09:07.129Z,68.53
2023-04-27T05:11:39.418Z,68.47
2023-04-27T05:14:09.065Z,68.30
2023-04-27T05:16:38.817Z,68.10
2023-04-27T05:19:08.819Z,67.95
2023-04-27T05:21:38.532Z,67.82
2023-04-27T05:24:08.866Z,67.65
2023-04-27T05:26:42.742Z,67.65
2023-04-27T05:29:12.658Z,67.46
2023-04-27T05:31:42.588Z,67.31
2023-04-27T05:34:13.357Z,67.17
2023-04-27T05:36:43.164Z,66.82
2023-04-27T05:39:13.084Z,66.72
2023-04-27T05:41:45.492Z,66.64
2023-04-27T05:44:15.286Z,66.11
2023-04-27T05:46:45.197Z,65.81
2023-04-27T05:49:15.094Z,65.64
2023-04-27T05:51:45.312Z,65.29
2023-04-27T05:54:15.206Z,65.05
2023-04-27T05:56:47.571Z,64.96
2023-04-27T05:59:17.244Z,64.84
2023-04-27T06:01:46.946Z,64.72
2023-04-27T06:04:16.846Z,64.63
2023-04-27T06:06:47.594Z,64.45
2023-04-27T06:09:17.389Z,64.16
2023-04-27T06:11:49.633Z,64.00
2023-04-27T06:14:19.353Z,63.93
2023-04-27T06:16:49.010Z,63.40
2023-04-27T06:19:18.678Z,63.51
2023-04-27T06:21:48.378Z,63.11
2023-04-27T06:24:18.131Z,62.98
2023-04-27T06:26:50.649Z,62.99
2023-04-27T06:29:20.368Z,62.43
2023-04-27T06:31:50.061Z,61.95
2023-04-27T06:34:19.948Z,60.88
2023-04-27T06:36:49.589Z,59.60
2023-04-27T06:39:19.250Z,57.90
2023-04-27T06:41:51.591Z,55.86
2023-04-27T06:44:21.931Z,54.46
2023-04-27T06:46:51.707Z,53.20
2023-04-27T06:49:21.646Z,51.50
2023-04-27T06:51:51.373Z,50.11
2023-04-27T06:54:21.341Z,48.67
2023-04-27T06:56:54.994Z,47.99
2023-04-27T06:59:24.732Z,46.04
2023-04-27T07:01:54.567Z,45.15
2023-04-27T07:04:24.358Z,44.53
2023-04-27T07:06:54.185Z,43.76
2023-04-27T07:09:27.480Z,42.57
2023-04-27T07:12:01.393Z,40.88
2023-04-27T07:14:31.918Z,40.80
2023-04-27T07:17:01.692Z,39.86
2023-04-27T07:19:31.447Z,39.36
2023-04-27T07:22:01.655Z,38.00
2023-04-27T07:24:31.357Z,37.87
2023-04-27T07:27:04.214Z,37.73
2023-04-27T07:29:34.159Z,36.95
2023-04-27T07:32:04.173Z,36.14
2023-04-27T07:34:49.201Z,35.00
2023-04-27T07:37:22.270Z,33.91
2023-04-27T07:39:53.158Z,32.70
2023-04-27T07:42:25.466Z,33.20
2023-04-27T07:44:55.173Z,32.21
2023-04-27T07:47:24.826Z,32.46
2023-04-27T07:49:54.551Z,31.65
2023-04-27T07:52:24.258Z,31.29
2023-04-27T07:54:53.981Z,31.13
2023-04-27T07:57:26.231Z,30.21
2023-04-27T07:59:55.918Z,29.48
2023-04-27T08:02:26.015Z,29.21
2023-04-27T08:04:56.441Z,29.29
2023-04-27T08:07:27.071Z,28.69
2023-04-27T08:09:57.203Z,28.35
2023-04-27T08:12:29.506Z,27.90
2023-04-27T08:14:59.213Z,27.91
2023-04-27T08:17:29.007Z,27.34
2023-04-27T08:19:58.707Z,26.69
2023-04-27T08:22:28.595Z,26.30
2023-04-27T08:24:58.271Z,25.59
2023-04-27T08:27:31.013Z,25.31
2023-04-27T08:30:01.752Z,25.43
2023-04-27T08:32:31.471Z,25.37
2023-04-27T08:35:01.187Z,25.53
2023-04-27T08:37:30.899Z,24.50
2023-04-27T08:40:00.730Z,24.27
2023-04-27T08:42:33.392Z,24.10
2023-04-27T08:45:03.169Z,24.69
2023-04-27T08:47:42.615Z,24.32
2023-04-27T08:50:14.417Z,23.68
2023-04-27T08:52:46.801Z,23.37
2023-04-27T08:55:17.348Z,23.83
2023-04-27T08:58:01.512Z,23.54
2023-04-27T09:00:41.781Z,23.20
2023-04-27T09:03:17.095Z,23.39
2023-04-27T09:06:03.470Z,23.35
2023-04-27T09:08:44.550Z,23.44
2023-04-27T09:11:14.535Z,23.38
2023-04-27T09:13:47.873Z,23.20
2023-04-27T09:16:17.748Z,22.87
2023-04-27T09:18:47.467Z,23.38
2023-04-27T09:21:25.331Z,22.62
2023-04-27T09:23:55.820Z,22.98
2023-04-27T09:26:27.238Z,22.31
2023-04-27T09:28:59.936Z,21.78
2023-04-27T09:31:34.567Z,22.54
2023-04-27T09:34:04.905Z,22.72
2023-04-27T09:36:35.219Z,22.58
2023-04-27T09:39:07.248Z,22.55
2023-04-27T09:41:37.208Z,22.24
2023-04-27T09:44:10.589Z,21.96
2023-04-27T09:46:40.018Z,22.63
2023-04-27T09:49:09.742Z,22.78
2023-04-27T09:51:39.605Z,22.62
2023-04-27T09:54:10.267Z,22.36
2023-04-27T09:56:46.746Z,22.24
2023-04-27T09:59:39.355Z,22.01
2023-04-27T10:02:23.521Z,22.39
2023-04-27T10:05:23.922Z,22.66
2023-04-27T10:07:54.993Z,22.55
2023-04-27T10:10:24.717Z,23.12
2023-04-27T10:13:01.273Z,23.93
2023-04-27T10:15:33.565Z,23.93
2023-04-27T10:18:07.706Z,24.83
2023-04-27T10:20:41.119Z,24.85
2023-04-27T10:23:10.850Z,25.16
2023-04-27T10:25:42.045Z,25.63
2023-04-27T10:28:18.635Z,25.94
2023-04-27T10:30:52.113Z,26.29
2023-04-27T10:33:22.800Z,27.52
2023-04-27T10:36:00.759Z,27.94
2023-04-27T10:38:32.809Z,27.82
2023-04-27T10:41:05.598Z,28.01
2023-04-27T10:43:37.747Z,28.03
2023-04-27T10:46:13.706Z,27.63
2023-04-27T10:48:44.032Z,27.94
2023-04-27T10:51:18.265Z,27.62
2023-04-27T10:53:48.217Z,27.79
2023-04-27T10:56:17.927Z,27.56
2023-04-27T10:58:49.485Z,27.33
2023-04-27T11:01:29.974Z,27.43
2023-04-27T11:03:59.962Z,27.47
2023-04-27T11:06:30.509Z,27.64
2023-04-27T11:09:00.337Z,27.51
2023-04-27T11:11:30.079Z,27.28
2023-04-27T11:13:59.773Z,27.98
2023-04-27T11:16:33.118Z,27.67
2023-04-27T11:19:07.618Z,28.06
2023-04-27T11:21:37.350Z,28.31
2023-04-27T11:24:08.316Z,28.81
2023-04-27T11:26:37.966Z,28.84
2023-04-27T11:29:10.253Z,28.60
2023-04-27T11:31:48.860Z,28.32
2023-04-27T11:34:19.968Z,29.00
2023-04-27T11:37:10.642Z,29.04
2023-04-27T11:39:49.318Z,28.98
2023-04-27T11:42:22.052Z,28.93
2023-04-27T11:44:58.965Z,29.45
2023-04-27T11:47:32.859Z,29.46
2023-04-27T11:50:04.872Z,29.90
2023-04-27T11:52:36.275Z,29.87
2023-04-27T11:55:07.367Z,30.30
2023-04-27T11:57:38.863Z,30.33
2023-04-27T12:00:14.236Z,30.95
2023-04-27T12:02:47.501Z,30.93
2023-04-27T12:05:17.601Z,31.02
2023-04-27T12:07:47.460Z,31.21
2023-04-27T12:10:17.414Z,31.73
2023-04-27T12:12:47.121Z,31.88
2023-04-27T12:15:16.840Z,31.54
2023-04-27T12:17:49.253Z,31.66
2023-04-27T12:20:19.159Z,31.59
2023-04-27T12:22:48.792Z,31.76
2023-04-27T12:25:19.826Z,32.37
2023-04-27T12:27:49.543Z,32.29
2023-04-27T12:30:19.382Z,32.17
2023-04-27T12:32:52.013Z,32.29
2023-04-27T12:35:21.718Z,32.37
2023-04-27T12:37:52.506Z,32.25
2023-04-27T12:40:23.362Z,31.91
2023-04-27T12:42:53.005Z,31.76
2023-04-27T12:45:22.649Z,32.07
2023-04-27T12:48:03.515Z,31.81
2023-04-27T12:50:33.865Z,31.55
2023-04-27T12:53:03.697Z,31.55
2023-04-27T12:55:34.484Z,31.47
2023-04-27T12:58:06.568Z,31.71
2023-04-27T13:00:37.033Z,31.75
2023-04-27T13:03:09.683Z,31.53
2023-04-27T13:05:39.597Z,31.94
2023-04-27T13:08:09.417Z,31.55
2023-04-27T13:10:39.355Z,31.60
2023-04-27T13:13:09.020Z,31.60
2023-04-27T13:15:39.398Z,31.38
2023-04-27T13:18:12.136Z,31.75
2023-04-27T13:20:43.184Z,32.10
2023-04-27T13:23:13.485Z,31.94
2023-04-27T13:25:43.127Z,31.60
2023-04-27T13:28:12.797Z,31.89
2023-04-27T13:30:42.461Z,31.31
2023-04-27T13:33:22.499Z,31.44
2023-04-27T13:35:53.412Z,31.65
2023-04-27T13:38:23.178Z,31.38
2023-04-27T13:40:52.852Z,31.47
2023-04-27T13:43:22.597Z,31.86
2023-04-27T13:45:54.622Z,31.53
2023-04-27T13:48:27.392Z,31.84
2023-04-27T13:50:58.065Z,31.96
2023-04-27T13:53:28.280Z,31.83
2023-04-27T13:55:58.606Z,32.09
2023-04-27T13:58:29.839Z,32.07
2023-04-27T14:01:01.094Z,31.76
2023-04-27T14:03:33.998Z,32.03
2023-04-27T14:06:04.308Z,32.14
2023-04-27T14:08:34.014Z,32.15
2023-04-27T14:11:03.744Z,31.77
2023-04-27T14:13:33.438Z,31.58
2023-04-27T14:16:03.211Z,31.76
2023-04-27T14:18:36.472Z,31.93
2023-04-27T14:21:07.290Z,31.84
2023-04-27T14:23:37.101Z,31.64
2023-04-27T14:26:06.971Z,31.37
2023-04-27T14:28:36.973Z,31.01
2023-04-27T14:31:06.626Z,31.17
2023-04-27T14:33:38.894Z,31.18
2023-04-27T14:36:09.236Z,31.34
2023-04-27T14:38:38.980Z,31.44
2023-04-27T14:41:09.167Z,31.01
2023-04-27T14:43:38.896Z,31.46
2023-04-27T14:46:20.259Z,31.40
2023-04-27T14:48:53.477Z,31.15
2023-04-27T14:51:23.189Z,31.53
2023-04-27T14:53:52.887Z,31.32
2023-04-27T14:56:23.319Z,31.31
2023-04-27T14:58:53.247Z,31.36
2023-04-27T15:01:23.014Z,31.23
2023-04-27T15:03:56.708Z,31.16
2023-04-27T15:06:28.326Z,31.06
2023-04-27T15:08:58.013Z,30.90
2023-04-27T15:11:27.700Z,30.99
2023-04-27T15:13:57.458Z,30.99
2023-04-27T15:16:27.531Z,31.02
2023-04-27T15:18:59.863Z,30.78
2023-04-27T15:21:29.545Z,31.14
2023-04-27T15:23:59.211Z,30.83
2023-04-27T15:26:29.137Z,31.20
2023-04-27T15:28:59.625Z,31.45
2023-04-27T15:31:29.297Z,31.02
2023-04-27T15:34:01.545Z,31.39
2023-04-27T15:36:31.692Z,31.16
2023-04-27T15:39:01.426Z,31.18
2023-04-27T15:41:31.234Z,31.15
2023-04-27T15:44:00.957Z,31.20
2023-04-27T15:46:30.749Z,31.52
2023-04-27T15:49:03.098Z,31.38
2023-04-27T15:51:32.841Z,31.42
2023-04-27T15:54:02.577Z,31.36
2023-04-27T15:56:32.225Z,31.38
2023-04-27T15:59:02.138Z,31.61
2023-04-27T16:01:31.915Z,31.61
2023-04-27T16:04:04.475Z,31.46
2023-04-27T16:06:34.841Z,31.80
2023-04-27T16:09:04.654Z,31.95
2023-04-27T16:11:34.779Z,32.12
2023-04-27T16:14:04.758Z,32.23
2023-04-27T16:16:34.859Z,32.16
2023-04-27T16:19:07.654Z,32.43
2023-04-27T16:21:37.466Z,32.28
2023-04-27T16:24:07.564Z,32.60
2023-04-27T16:26:37.234Z,32.73
2023-04-27T16:29:07.276Z,32.79
2023-04-27T16:31:37.105Z,33.23
2023-04-27T16:34:09.452Z,33.18
2023-04-27T16:36:39.116Z,33.74
2023-04-27T16:39:09.509Z,33.50
2023-04-27T16:41:39.244Z,33.78
2023-04-27T16:44:08.981Z,33.90
2023-04-27T16:46:38.717Z,34.16
2023-04-27T16:49:11.133Z,34.45
2023-04-27T16:51:40.818Z,34.78
2023-04-27T16:54:10.713Z,34.79
2023-04-27T16:56:40.393Z,35.12
2023-04-27T16:59:12.559Z,35.30
2023-04-27T17:01:42.457Z,35.35
2023-04-27T17:04:14.893Z,35.90
2023-04-27T17:06:47.124Z,36.02
2023-04-27T17:09:17.011Z,36.23
2023-04-27T17:11:47.266Z,35.84
2023-04-27T17:14:17.009Z,36.19
2023-04-27T17:16:46.936Z,36.21
2023-04-27T17:19:19.295Z,36.50
2023-04-27T17:21:48.942Z,36.44
2023-04-27T17:24:18.666Z,36.71
2023-04-27T17:26:48.623Z,36.97
2023-04-27T17:29:18.627Z,37.12
2023-04-27T17:31:48.383Z,37.53
2023-04-27T17:34:21.177Z,37.38
2023-04-27T17:36:50.879Z,37.55
2023-04-27T17:39:22.735Z,38.13
2023-04-27T17:41:52.436Z,38.24
2023-04-27T17:44:22.144Z,38.35
2023-04-27T17:46:53.310Z,38.24
2023-04-27T17:49:25.971Z,38.30
2023-04-27T17:51:55.723Z,38.14
2023-04-27T17:54:25.429Z,38.65
2023-04-27T17:56:55.144Z,38.40
2023-04-27T17:59:24.948Z,38.50
2023-04-27T18:01:55.021Z,38.48
2023-04-27T18:04:27.514Z,38.64
2023-04-27T18:06:57.312Z,38.81
2023-04-27T18:09:29.434Z,38.89
2023-04-27T18:12:00.872Z,39.02
2023-04-27T18:14:30.587Z,38.96
2023-04-27T18:17:00.286Z,39.22
2023-04-27T18:19:32.593Z,39.49
2023-04-27T18:22:02.325Z,39.52
2023-04-27T18:24:32.034Z,39.59
2023-04-27T18:27:01.709Z,39.80
2023-04-27T18:29:31.371Z,39.83
2023-04-27T18:32:05.654Z,39.90
2023-04-27T18:34:38.142Z,40.14
2023-04-27T18:37:07.843Z,40.22
2023-04-27T18:39:37.512Z,40.26
2023-04-27T18:42:07.217Z,40.27
2023-04-27T18:44:37.330Z,40.51
2023-04-27T18:47:07.888Z,40.53
2023-04-27T18:49:40.147Z,40.51
2023-04-27T18:52:11.665Z,40.86
2023-04-27T18:54:42.240Z,40.77
2023-04-27T18:57:11.937Z,40.91
2023-04-27T18:59:41.745Z,40.98
2023-04-27T19:02:11.542Z,41.17
2023-04-27T19:04:52.825Z,41.29
2023-04-27T19:07:27.141Z,41.34
2023-04-27T19:09:57.733Z,41.38
2023-04-27T19:12:27.393Z,41.64
2023-04-27T19:14:57.054Z,41.65
2023-04-27T19:17:26.985Z,41.56
2023-04-27T19:19:59.369Z,41.64
2023-04-27T19:22:34.243Z,41.82
2023-04-27T19:25:04.083Z,41.92
2023-04-27T19:27:33.862Z,41.89
2023-04-27T19:30:04.371Z,42.24
2023-04-27T19:32:36.462Z,42.18
2023-04-27T19:35:11.987Z,42.24
2023-04-27T19:37:41.801Z,42.18
2023-04-27T19:40:12.903Z,42.49
2023-04-27T19:42:42.551Z,42.59
2023-04-27T19:45:13.244Z,42.64
2023-04-27T19:47:42.931Z,42.76
2023-04-27T19:50:15.573Z,42.72
2023-04-27T19:52:45.284Z,42.73
2023-04-27T19:55:15.199Z,42.76
2023-04-27T19:57:44.898Z,42.92
2023-04-27T20:00:15.678Z,43.06
2023-04-27T20:02:45.502Z,42.95
2023-04-27T20:05:18.094Z,43.08
2023-04-27T20:07:50.106Z,43.03
2023-04-27T20:10:19.974Z,43.15
2023-04-27T20:12:56.494Z,43.40
2023-04-27T20:15:27.286Z,43.29
2023-04-27T20:17:56.996Z,43.28
2023-04-27T20:20:29.668Z,43.44
2023-04-27T20:22:59.329Z,43.57
2023-04-27T20:25:29.268Z,43.61
2023-04-27T20:27:58.945Z,43.61
2023-04-27T20:30:28.721Z,43.48
2023-04-27T20:32:59.509Z,43.68
2023-04-27T20:35:31.766Z,43.65
2023-04-27T20:38:02.030Z,43.73
2023-04-27T20:40:31.846Z,43.73
2023-04-27T20:43:01.579Z,43.75
2023-04-27T20:45:31.297Z,43.83
2023-04-27T20:48:01.027Z,43.83
2023-04-27T20:50:33.345Z,43.82
2023-04-27T20:53:03.033Z,43.83
2023-04-27T20:55:33.472Z,43.94
2023-04-27T20:58:03.209Z,43.89
2023-04-27T21:00:33.103Z,44.01
2023-04-27T21:03:05.154Z,44.07
2023-04-27T21:05:37.508Z,44.07
2023-04-27T21:08:07.333Z,44.16
2023-04-27T21:10:37.433Z,44.01
2023-04-27T21:13:07.218Z,44.10
2023-04-27T21:15:36.905Z,44.28
2023-04-27T21:18:13.418Z,44.11
2023-04-27T21:20:51.377Z,44.16
2023-04-27T21:23:21.167Z,44.19
2023-04-27T21:25:50.910Z,44.26
2023-04-27T21:28:20.673Z,44.44
2023-04-27T21:30:50.458Z,44.46
2023-04-27T21:33:20.157Z,44.57
2023-04-27T21:35:52.440Z,44.62
2023-04-27T21:38:22.268Z,44.54
2023-04-27T21:40:51.941Z,44.65
2023-04-27T21:43:21.605Z,44.63
2023-04-27T21:45:51.283Z,44.67
2023-04-27T21:48:21.013Z,44.66
2023-04-27T21:50:53.283Z,44.63
2023-04-27T21:53:23.271Z,44.74
2023-04-27T21:55:52.904Z,44.84
2023-04-27T21:58:22.651Z,44.78
2023-04-27T22:00:52.335Z,44.85
2023-04-27T22:03:22.910Z,45.06
2023-04-27T22:05:57.663Z,44.92
2023-04-27T22:08:27.652Z,45.12
2023-04-27T22:10:58.573Z,45.13
2023-04-27T22:13:28.336Z,45.30
2023-04-27T22:15:58.046Z,45.25
2023-04-27T22:18:27.829Z,45.26
2023-04-27T22:21:00.684Z,45.33
2023-04-27T22:23:33.609Z,45.36
2023-04-27T22:26:03.285Z,45.59
2023-04-27T22:28:33.097Z,45.54
2023-04-27T22:31:03.784Z,45.63
2023-04-27T22:33:34.019Z,45.53
2023-04-27T22:36:06.729Z,45.72
2023-04-27T22:38:36.456Z,45.65
2023-04-27T22:41:06.184Z,45.82
2023-04-27T22:43:36.042Z,45.83
2023-04-27T22:46:05.774Z,46.02
2023-04-27T22:48:35.468Z,46.31
2023-04-27T22:51:10.975Z,46.48
2023-04-27T22:53:40.725Z,46.29
2023-04-27T22:56:10.878Z,46.59
2023-04-27T22:58:40.971Z,46.58
2023-04-27T23:01:10.783Z,46.69
2023-04-27T23:03:41.273Z,46.58
2023-04-27T23:06:15.651Z,46.68
2023-04-27T23:08:47.195Z,46.69
2023-04-27T23:11:19.081Z,46.91
2023-04-27T23:13:50.716Z,46.76
2023-04-27T23:16:20.596Z,46.98
2023-04-27T23:18:50.991Z,47.03
2023-04-27T23:21:23.251Z,47.28
2023-04-27T23:23:53.091Z,47.48
2023-04-27T23:26:22.807Z,47.82
2023-04-27T23:28:52.684Z,48.30
2023-04-27T23:31:22.466Z,48.94
2023-04-27T23:33:52.337Z,49.40
2023-04-27T23:36:24.590Z,49.87
2023-04-27T23:38:54.583Z,50.67
2023-04-27T23:41:24.338Z,51.08
2023-04-27T23:43:54.029Z,51.37
2023-04-27T23:46:23.778Z,51.90
2023-04-27T23:48:53.487Z,52.42
2023-04-27T23:51:25.809Z,52.38
2023-04-27T23:53:55.542Z,52.39
2023-04-27T23:56:26.194Z,52.53
2023-04-27T23:58:55.888Z,52.42
